Time;durP1;ratioP1;P1;durP2;ratioP2;P2;SDS_P1;SDS_P2;PMS_P1;PMS_P2;Temp;Humidity;BMP_temperature;BMP_pressure;BME280_temperature;BME280_humidity;BME280_pressure;Samples;Min_cycle;Max_cycle;Signal;HPM_P1;HPM_P2
2021/10/15 00:03:55;;;;;;;11.77;4.87;;;;;;;;;;10421782;28;20037;-88
2021/10/15 00:08:56;;;;;;;11.70;5.70;;;;;;;;;;10421657;28;20176;-88
2021/10/15 00:13:56;;;;;;;17.87;5.20;;;;;;;;;;10422099;28;20111;-88
2021/10/15 00:18:56;;;;;;;11.77;4.80;;;;;;;;;;10421419;28;20029;-89
2021/10/15 00:23:57;;;;;;;11.77;5.20;;;;;;;;;;10420889;28;20290;-88
2021/10/15 00:28:57;;;;;;;13.90;5.67;;;;;;;;;;10421684;28;20045;-87
2021/10/15 00:33:57;;;;;;;14.33;4.93;;;;;;;;;;10420857;28;20270;-86
2021/10/15 00:38:58;;;;;;;9.43;4.43;;;;;;;;;;10421390;28;20025;-85
2021/10/15 00:44:05;;;;;;;7.97;4.70;;;;;;;;;;10401957;28;20046;-86
2021/10/15 00:49:07;;;;;;;13.45;4.68;;;;;;;;;;10420519;28;20458;-88
2021/10/15 00:54:08;;;;;;;8.45;4.43;;;;;;;;;;10421057;28;20116;-88
2021/10/15 00:59:08;;;;;;;7.47;4.05;;;;;;;;;;10420005;28;20159;-89
2021/10/15 01:04:09;;;;;;;7.63;4.30;;;;;;;;;;10419953;28;20063;-88
2021/10/15 01:09:09;;;;;;;10.60;4.20;;;;;;;;;;10420606;28;20345;-89
2021/10/15 01:14:10;;;;;;;8.57;4.17;;;;;;;;;;10419613;28;20041;-87
2021/10/15 01:19:11;;;;;;;8.90;3.88;;;;;;;;;;10418843;28;20040;-89
2021/10/15 01:24:14;;;;;;;9.38;4.10;;;;;;;;;;10419677;28;20112;-89
2021/10/15 01:29:14;;;;;;;7.82;4.43;;;;;;;;;;10402006;28;20030;-89
2021/10/15 01:34:14;;;;;;;7.83;4.70;;;;;;;;;;10419007;28;20033;-89
2021/10/15 01:39:15;;;;;;;16.37;4.00;;;;;;;;;;10418207;28;20026;-89
2021/10/15 01:44:15;;;;;;;8.93;3.67;;;;;;;;;;10418363;28;20046;-89
2021/10/15 01:49:16;;;;;;;8.40;4.57;;;;;;;;;;10418719;28;20052;-89
2021/10/15 01:54:16;;;;;;;9.45;3.63;;;;;;;;;;10420710;28;20289;-89
2021/10/15 01:59:17;;;;;;;9.67;3.87;;;;;;;;;;10420231;28;20026;-89
2021/10/15 02:04:17;;;;;;;10.20;4.00;;;;;;;;;;10419694;28;20371;-87
2021/10/15 02:09:17;;;;;;;6.80;3.87;;;;;;;;;;10418595;28;20410;-87
2021/10/15 02:14:18;;;;;;;9.37;3.83;;;;;;;;;;10417415;28;20455;-88
2021/10/15 02:19:18;;;;;;;5.50;3.27;;;;;;;;;;10410101;28;20052;-90
2021/10/15 02:24:18;;;;;;;6.40;3.63;;;;;;;;;;10412270;28;20025;-90
2021/10/15 02:29:19;;;;;;;6.05;3.55;;;;;;;;;;10417217;28;20076;-89
2021/10/15 02:34:20;;;;;;;14.97;4.13;;;;;;;;;;10416920;28;20047;-93
2021/10/15 02:39:20;;;;;;;5.78;3.28;;;;;;;;;;10399035;28;20266;-89
2021/10/15 02:44:20;;;;;;;6.90;3.23;;;;;;;;;;10416184;28;20037;-92
2021/10/15 02:49:21;;;;;;;6.70;3.58;;;;;;;;;;10413684;28;20029;-92
2021/10/15 02:54:21;;;;;;;3.70;2.73;;;;;;;;;;10389548;28;20075;-92
2021/10/15 02:59:21;;;;;;;8.13;3.50;;;;;;;;;;10407164;28;20682;-91
2021/10/15 03:04:22;;;;;;;7.47;3.00;;;;;;;;;;10388093;28;20376;-91
2021/10/15 03:09:22;;;;;;;6.47;3.30;;;;;;;;;;10401177;28;20359;-91
2021/10/15 03:14:23;;;;;;;8.00;3.03;;;;;;;;;;10403945;28;20420;-88
2021/10/15 03:19:23;;;;;;;5.95;3.38;;;;;;;;;;10415491;28;20030;-88
2021/10/15 03:24:24;;;;;;;7.38;3.28;;;;;;;;;;10409825;28;20037;-87
2021/10/15 03:29:24;;;;;;;5.00;3.03;;;;;;;;;;10415333;28;20455;-88
2021/10/15 03:34:24;;;;;;;5.97;3.03;;;;;;;;;;10414194;28;20610;-87
2021/10/15 03:39:25;;;;;;;7.70;3.03;;;;;;;;;;10428131;28;20037;-88
2021/10/15 03:44:25;;;;;;;4.73;2.90;;;;;;;;;;10396473;28;20045;-90
2021/10/15 03:49:26;;;;;;;5.10;2.87;;;;;;;;;;10410395;28;20283;-91
2021/10/15 03:54:26;;;;;;;5.97;3.08;;;;;;;;;;10427681;28;20028;-91
2021/10/15 03:59:26;;;;;;;4.80;2.87;;;;;;;;;;10406366;28;20037;-91
2021/10/15 04:04:28;;;;;;;4.63;3.07;;;;;;;;;;10422330;28;20318;-91
2021/10/15 04:09:29;;;;;;;6.70;2.90;;;;;;;;;;10428516;28;20040;-90
2021/10/15 04:14:29;;;;;;;6.65;3.00;;;;;;;;;;10408283;28;20048;-91
2021/10/15 04:19:30;;;;;;;6.27;2.93;;;;;;;;;;10406962;28;20430;-89
2021/10/15 04:24:30;;;;;;;12.65;2.97;;;;;;;;;;10428941;28;20270;-90
2021/10/15 04:29:30;;;;;;;10.50;2.90;;;;;;;;;;10427663;28;20179;-90
2021/10/15 04:34:31;;;;;;;4.18;2.55;;;;;;;;;;10407954;28;20570;-89
2021/10/15 04:39:31;;;;;;;4.90;2.72;;;;;;;;;;10417272;28;20060;-89
2021/10/15 04:44:31;;;;;;;6.90;2.97;;;;;;;;;;10419837;28;20098;-89
2021/10/15 04:49:32;;;;;;;4.70;2.53;;;;;;;;;;10399820;28;20025;-89
2021/10/15 04:54:32;;;;;;;6.87;2.57;;;;;;;;;;10403449;28;20044;-91
2021/10/15 04:59:33;;;;;;;5.88;2.85;;;;;;;;;;10418608;28;20320;-87
2021/10/15 05:04:34;;;;;;;7.72;2.50;;;;;;;;;;10418264;28;20037;-87
2021/10/15 05:09:36;;;;;;;5.20;3.53;;;;;;;;;;10419469;28;20037;-87
2021/10/15 05:14:36;;;;;;;5.78;3.05;;;;;;;;;;10419892;28;20056;-88
2021/10/15 05:19:37;;;;;;;9.23;5.53;;;;;;;;;;10419699;28;20432;-88
2021/10/15 05:24:37;;;;;;;9.90;5.55;;;;;;;;;;10401042;28;20037;-89
2021/10/15 05:29:37;;;;;;;8.53;3.17;;;;;;;;;;10419379;28;20139;-89
2021/10/15 05:34:38;;;;;;;5.28;2.90;;;;;;;;;;10420039;28;20279;-92
2021/10/15 05:39:39;;;;;;;3.73;3.10;;;;;;;;;;10417158;28;20033;-89
2021/10/15 05:44:39;;;;;;;6.32;3.25;;;;;;;;;;10416595;28;20090;-86
2021/10/15 05:49:40;;;;;;;14.55;3.75;;;;;;;;;;10407340;28;20038;-87
2021/10/15 05:59:44;;;;;;;5.78;3.50;;;;;;;;;;10416444;28;20037;-90
2021/10/15 06:15:07;;;;;;;7.43;3.03;;;;;;;;;;10414584;28;20387;-84
2021/10/15 06:20:07;;;;;;;12.18;3.22;;;;;;;;;;10413232;28;20033;-87
2021/10/15 06:25:08;;;;;;;9.45;3.25;;;;;;;;;;10412104;28;20037;-87
2021/10/15 06:30:09;;;;;;;10.00;4.00;;;;;;;;;;10404653;28;20029;-87
2021/10/15 06:35:09;;;;;;;12.43;3.70;;;;;;;;;;10415724;28;20091;-87
2021/10/15 06:40:10;;;;;;;10.80;3.42;;;;;;;;;;10415567;28;20029;-85
2021/10/15 06:45:11;;;;;;;8.85;3.50;;;;;;;;;;10415101;28;20037;-87
2021/10/15 06:50:11;;;;;;;5.37;2.97;;;;;;;;;;10415928;28;20017;-86
2021/10/15 06:55:16;;;;;;;10.45;3.55;;;;;;;;;;10414922;28;20711;-87
2021/10/15 07:00:17;;;;;;;8.25;3.10;;;;;;;;;;10415932;28;20025;-86
2021/10/15 07:05:18;;;;;;;6.35;2.80;;;;;;;;;;10415552;28;20053;-87
2021/10/15 07:10:18;;;;;;;5.30;3.08;;;;;;;;;;10414915;28;20079;-88
2021/10/15 07:15:18;;;;;;;12.05;2.97;;;;;;;;;;10414826;28;20099;-87
2021/10/15 07:20:19;;;;;;;7.57;3.40;;;;;;;;;;10415473;28;20038;-87
2021/10/15 07:25:20;;;;;;;5.83;3.07;;;;;;;;;;10414371;28;20035;-87
2021/10/15 07:30:20;;;;;;;4.35;2.80;;;;;;;;;;10414552;28;20255;-87
2021/10/15 07:35:20;;;;;;;5.60;2.93;;;;;;;;;;10414503;28;20083;-87
2021/10/15 07:40:21;;;;;;;5.87;2.80;;;;;;;;;;10415019;28;20025;-87
2021/10/15 07:45:21;;;;;;;5.75;2.85;;;;;;;;;;10458270;23;20057;-92
2021/10/15 07:50:22;;;;;;;8.47;2.97;;;;;;;;;;10418527;28;20033;-90
2021/10/15 07:55:22;;;;;;;10.32;3.35;;;;;;;;;;10418565;28;20261;-93
2021/10/15 08:00:23;;;;;;;8.43;2.63;;;;;;;;;;10418079;28;20033;-92
2021/10/15 08:05:23;;;;;;;7.68;3.05;;;;;;;;;;10418939;28;20354;-92
2021/10/15 08:10:24;;;;;;;4.25;2.72;;;;;;;;;;10423811;28;20045;-92
2021/10/15 08:15:24;;;;;;;9.05;2.50;;;;;;;;;;10430254;28;20103;-92
2021/10/15 08:20:25;;;;;;;6.22;2.92;;;;;;;;;;10427300;28;20025;-92
2021/10/15 08:25:27;;;;;;;4.57;2.83;;;;;;;;;;10442075;28;20471;-92
2021/10/15 08:30:28;;;;;;;6.22;2.90;;;;;;;;;;10426905;28;20034;-92
2021/10/15 08:35:28;;;;;;;4.85;2.35;;;;;;;;;;10428071;28;20391;-91
2021/10/15 08:40:28;;;;;;;2.83;2.43;;;;;;;;;;10425046;28;20033;-92
2021/10/15 08:45:32;;;;;;;6.53;3.00;;;;;;;;;;10448235;28;20053;-92
2021/10/15 08:50:35;;;;;;;5.57;2.60;;;;;;;;;;10465499;28;20037;-92
2021/10/15 08:55:35;;;;;;;3.78;2.42;;;;;;;;;;10464889;28;20379;-90
2021/10/15 09:00:37;;;;;;;4.20;2.38;;;;;;;;;;10465341;28;20029;-91
2021/10/15 09:05:42;;;;;;;4.15;2.47;;;;;;;;;;10464594;28;20035;-93
2021/10/15 09:10:42;;;;;;;6.55;2.50;;;;;;;;;;10464940;28;20116;-91
2021/10/15 09:15:44;;;;;;;4.20;2.50;;;;;;;;;;10465139;28;20071;-91
2021/10/15 09:20:45;;;;;;;2.58;2.08;;;;;;;;;;10464180;28;20036;-91
2021/10/15 09:25:46;;;;;;;4.28;2.15;;;;;;;;;;10468392;28;20037;-90
2021/10/15 09:30:49;;;;;;;4.05;2.28;;;;;;;;;;10463039;28;20025;-88
2021/10/15 09:36:05;;;;;;;5.15;2.67;;;;;;;;;;10463928;28;20382;-89
2021/10/15 09:41:06;;;;;;;3.03;2.05;;;;;;;;;;10463355;28;20032;-89
2021/10/15 09:46:20;;;;;;;6.53;2.30;;;;;;;;;;10463041;28;20041;-87
2021/10/15 09:51:22;;;;;;;5.38;2.50;;;;;;;;;;10462584;28;20107;-87
2021/10/15 09:56:45;;;;;;;5.95;2.20;;;;;;;;;;10462415;28;20029;-88
2021/10/15 10:01:46;;;;;;;4.30;2.30;;;;;;;;;;10448428;28;20137;-87
2021/10/15 10:06:46;;;;;;;6.85;2.40;;;;;;;;;;10465987;28;20063;-87
2021/10/15 10:11:47;;;;;;;6.97;2.03;;;;;;;;;;10446152;28;20467;-88
2021/10/15 10:16:50;;;;;;;3.50;2.03;;;;;;;;;;10461363;28;20048;-88
2021/10/15 10:21:50;;;;;;;5.65;2.13;;;;;;;;;;10461477;28;20262;-83
2021/10/15 10:26:53;;;;;;;3.42;2.15;;;;;;;;;;10443676;28;20045;-85
2021/10/15 10:32:14;;;;;;;4.72;2.10;;;;;;;;;;10460213;28;20037;-85
2021/10/15 10:37:16;;;;;;;2.75;2.15;;;;;;;;;;10460914;28;20158;-86
2021/10/15 10:42:18;;;;;;;4.80;2.20;;;;;;;;;;10442680;28;20056;-86
2021/10/15 10:47:20;;;;;;;7.57;2.03;;;;;;;;;;10460494;28;20053;-85
2021/10/15 10:52:22;;;;;;;2.97;2.05;;;;;;;;;;10460265;28;20024;-85
2021/10/15 10:57:25;;;;;;;2.20;1.75;;;;;;;;;;10459372;28;20467;-85
2021/10/15 11:02:26;;;;;;;4.05;2.30;;;;;;;;;;10459630;28;20455;-86
2021/10/15 11:07:27;;;;;;;2.95;1.90;;;;;;;;;;10459471;28;20052;-85
2021/10/15 11:12:27;;;;;;;1.83;1.70;;;;;;;;;;10459231;28;20344;-84
2021/10/15 11:17:35;;;;;;;2.40;2.20;;;;;;;;;;10458886;28;20041;-85
2021/10/15 11:22:36;;;;;;;2.17;1.88;;;;;;;;;;10459077;28;20037;-85
2021/10/15 11:27:37;;;;;;;5.85;1.95;;;;;;;;;;10460513;28;20451;-87
2021/10/15 11:32:43;;;;;;;3.40;2.40;;;;;;;;;;10459210;28;20032;-89
2021/10/15 11:37:49;;;;;;;7.00;1.92;;;;;;;;;;10456983;28;20044;-88
2021/10/15 11:42:50;;;;;;;5.28;2.00;;;;;;;;;;10459120;28;20037;-89
2021/10/15 11:48:01;;;;;;;2.75;1.60;;;;;;;;;;10467589;28;20375;-90
2021/10/15 11:53:01;;;;;;;6.90;2.00;;;;;;;;;;10467239;28;20455;-86
2021/10/15 11:58:18;;;;;;;2.97;1.90;;;;;;;;;;10470814;28;20086;-90
2021/10/15 12:03:35;;;;;;;4.55;2.25;;;;;;;;;;10467059;28;20037;-90
2021/10/15 12:08:35;;;;;;;3.97;1.83;;;;;;;;;;10466823;28;20430;-87
2021/10/15 12:13:35;;;;;;;3.78;1.80;;;;;;;;;;10466160;28;20033;-89
2021/10/15 12:18:36;;;;;;;2.73;2.00;;;;;;;;;;10464822;28;20029;-90
2021/10/15 12:23:53;;;;;;;2.63;2.03;;;;;;;;;;10466248;28;20108;-90
2021/10/15 12:28:53;;;;;;;3.40;2.00;;;;;;;;;;10450314;28;20120;-89
2021/10/15 12:34:14;;;;;;;6.18;2.42;;;;;;;;;;10459070;28;20527;-85
2021/10/15 12:39:22;;;;;;;4.55;2.85;;;;;;;;;;10462713;28;20036;-79
2021/10/15 12:44:28;;;;;;;7.50;2.60;;;;;;;;;;10464005;28;20061;-81
2021/10/15 12:49:30;;;;;;;4.05;2.58;;;;;;;;;;10462419;28;20116;-86
2021/10/15 12:54:42;;;;;;;5.13;2.53;;;;;;;;;;10456937;28;20069;-86
2021/10/15 13:00:07;;;;;;;4.15;2.40;;;;;;;;;;10461034;28;20031;-86
2021/10/15 13:05:10;;;;;;;3.15;2.38;;;;;;;;;;10444518;28;20471;-88
2021/10/15 13:10:19;;;;;;;5.90;2.17;;;;;;;;;;10449221;28;20075;-86
2021/10/15 13:15:26;;;;;;;6.43;2.38;;;;;;;;;;10456611;28;20029;-87
2021/10/15 13:20:26;;;;;;;7.50;2.60;;;;;;;;;;10463917;28;20029;-88
2021/10/15 13:25:28;;;;;;;10.82;2.25;;;;;;;;;;10464054;28;20151;-89
2021/10/15 13:30:29;;;;;;;6.50;2.20;;;;;;;;;;10459897;28;20029;-87
2021/10/15 13:35:29;;;;;;;6.37;2.73;;;;;;;;;;10472268;28;20116;-88
2021/10/15 13:40:33;;;;;;;7.13;2.28;;;;;;;;;;10472686;28;20032;-86
2021/10/15 13:50:35;;;;;;;10.98;3.65;;;;;;;;;;10472269;28;20028;-88
2021/10/15 13:55:45;;;;;;;4.78;2.83;;;;;;;;;;10471874;28;20037;-87
2021/10/15 14:00:47;;;;;;;8.30;2.38;;;;;;;;;;10472444;28;20120;-86
2021/10/15 14:05:47;;;;;;;9.48;2.63;;;;;;;;;;10463874;28;20020;-87
2021/10/15 14:10:49;;;;;;;11.20;2.80;;;;;;;;;;10460358;28;20024;-86
2021/10/15 14:15:50;;;;;;;8.02;2.38;;;;;;;;;;10461614;28;20021;-87
2021/10/15 14:20:51;;;;;;;5.70;2.80;;;;;;;;;;10461987;28;20025;-85
2021/10/15 14:25:51;;;;;;;11.45;2.88;;;;;;;;;;10460961;28;20041;-87
2021/10/15 14:30:52;;;;;;;14.50;3.45;;;;;;;;;;10460624;28;20076;-87
2021/10/15 14:35:52;;;;;;;5.38;2.80;;;;;;;;;;10460623;28;20047;-85
2021/10/15 14:40:53;;;;;;;4.90;3.00;;;;;;;;;;10453651;28;20033;-88
2021/10/15 14:45:53;;;;;;;7.72;2.95;;;;;;;;;;10460414;28;20044;-86
2021/10/15 14:50:53;;;;;;;10.23;3.07;;;;;;;;;;10459128;28;20032;-87
2021/10/15 14:55:54;;;;;;;5.57;3.10;;;;;;;;;;10459803;28;20297;-86
2021/10/15 15:00:57;;;;;;;12.77;3.07;;;;;;;;;;10459094;28;20051;-87
2021/10/15 15:05:57;;;;;;;6.43;2.60;;;;;;;;;;10460193;28;20024;-83
2021/10/15 15:10:58;;;;;;;6.43;2.70;;;;;;;;;;10459928;28;20459;-86
2021/10/15 15:15:58;;;;;;;10.43;2.65;;;;;;;;;;10459981;28;20116;-90
2021/10/15 15:21:04;;;;;;;5.75;2.45;;;;;;;;;;10459441;28;20401;-87
2021/10/15 15:26:06;;;;;;;6.18;2.42;;;;;;;;;;10459511;28;20474;-87
2021/10/15 15:31:07;;;;;;;5.28;2.58;;;;;;;;;;10459742;28;20402;-85
2021/10/15 15:36:08;;;;;;;11.68;2.53;;;;;;;;;;10461360;28;20036;-86
2021/10/15 15:41:08;;;;;;;7.17;2.60;;;;;;;;;;10459901;28;20390;-82
2021/10/15 15:46:11;;;;;;;4.87;2.70;;;;;;;;;;10459649;28;20273;-85
2021/10/15 15:51:11;;;;;;;4.57;2.55;;;;;;;;;;10459163;28;20029;-82
2021/10/15 15:56:12;;;;;;;6.73;2.57;;;;;;;;;;10458331;28;20111;-86
2021/10/15 16:01:15;;;;;;;3.63;2.00;;;;;;;;;;10459031;28;20277;-84
2021/10/15 16:06:15;;;;;;;4.03;2.10;;;;;;;;;;10465570;28;20070;-85
2021/10/15 16:11:16;;;;;;;4.43;2.10;;;;;;;;;;10468253;28;20467;-85
2021/10/15 16:16:16;;;;;;;3.63;2.10;;;;;;;;;;10468641;28;20027;-85
2021/10/15 16:21:17;;;;;;;6.03;2.20;;;;;;;;;;10468179;28;20049;-84
2021/10/15 16:26:17;;;;;;;5.05;1.75;;;;;;;;;;10456185;28;20029;-82
2021/10/15 16:31:18;;;;;;;7.50;2.40;;;;;;;;;;10466395;28;20033;-81
2021/10/15 16:36:18;;;;;;;4.25;2.25;;;;;;;;;;10464681;28;20021;-81
2021/10/15 16:41:19;;;;;;;6.40;2.30;;;;;;;;;;10464150;28;20025;-82
2021/10/15 16:46:19;;;;;;;6.43;2.50;;;;;;;;;;10463593;28;20297;-84
2021/10/15 16:51:19;;;;;;;3.33;2.25;;;;;;;;;;10442631;28;20770;-85
2021/10/15 16:56:20;;;;;;;8.77;2.53;;;;;;;;;;10465464;28;20024;-86
2021/10/15 17:01:20;;;;;;;5.97;2.33;;;;;;;;;;10464927;28;20515;-83
2021/10/15 17:06:21;;;;;;;2.80;1.97;;;;;;;;;;10464184;28;20032;-85
2021/10/15 17:11:21;;;;;;;8.93;2.20;;;;;;;;;;10465292;28;20036;-85
2021/10/15 17:16:21;;;;;;;10.65;2.63;;;;;;;;;;10464953;28;20447;-87
2021/10/15 17:21:22;;;;;;;5.53;2.50;;;;;;;;;;10432838;28;20115;-87
2021/10/15 17:26:22;;;;;;;12.67;2.57;;;;;;;;;;10464577;28;20025;-89
2021/10/15 17:31:23;;;;;;;6.97;2.63;;;;;;;;;;10468705;28;20049;-88
2021/10/15 17:36:23;;;;;;;5.27;2.37;;;;;;;;;;10464018;28;20070;-87
2021/10/15 17:41:23;;;;;;;15.67;3.80;;;;;;;;;;10442771;28;20274;-83
2021/10/15 17:46:24;;;;;;;10.97;3.83;;;;;;;;;;10460015;28;20083;-85
2021/10/15 17:51:24;;;;;;;16.63;3.73;;;;;;;;;;10455677;28;20040;-85
2021/10/15 17:56:24;;;;;;;8.67;3.33;;;;;;;;;;10450306;28;20021;-85
2021/10/15 18:01:25;;;;;;;11.85;3.35;;;;;;;;;;10462087;28;20091;-85
2021/10/15 18:06:25;;;;;;;10.37;2.60;;;;;;;;;;10458885;28;20044;-84
2021/10/15 18:11:26;;;;;;;11.40;3.17;;;;;;;;;;10459976;28;20309;-85
2021/10/15 18:16:26;;;;;;;12.00;3.00;;;;;;;;;;10460309;28;20745;-84
2021/10/15 18:21:26;;;;;;;5.63;3.00;;;;;;;;;;10459921;28;20040;-84
2021/10/15 18:26:27;;;;;;;8.48;3.25;;;;;;;;;;10453669;28;20065;-85
2021/10/15 18:31:27;;;;;;;7.77;2.90;;;;;;;;;;10456607;28;20033;-85
2021/10/15 18:36:28;;;;;;;8.23;3.10;;;;;;;;;;10459232;28;20425;-84
2021/10/15 18:41:28;;;;;;;6.80;2.78;;;;;;;;;;10460664;28;20032;-85
2021/10/15 18:46:28;;;;;;;9.47;3.00;;;;;;;;;;10458723;28;20504;-81
2021/10/15 18:51:29;;;;;;;9.20;3.40;;;;;;;;;;10458296;28;20387;-81
2021/10/15 18:56:29;;;;;;;8.57;3.43;;;;;;;;;;10450361;28;20052;-81
2021/10/15 19:01:30;;;;;;;10.50;3.78;;;;;;;;;;10447349;28;20079;-82
2021/10/15 19:06:30;;;;;;;10.43;3.40;;;;;;;;;;10456136;28;20473;-81
2021/10/15 19:11:31;;;;;;;7.10;3.65;;;;;;;;;;10455742;28;20064;-84
2021/10/15 19:16:31;;;;;;;6.17;3.40;;;;;;;;;;10456303;28;20036;-83
2021/10/15 19:21:31;;;;;;;11.90;3.47;;;;;;;;;;10457458;28;20351;-82
2021/10/15 19:26:34;;;;;;;7.60;3.30;;;;;;;;;;10457144;28;20451;-83
2021/10/15 19:31:34;;;;;;;9.30;3.50;;;;;;;;;;10457505;28;20295;-83
2021/10/15 19:36:35;;;;;;;14.55;4.28;;;;;;;;;;10458360;28;20039;-83
2021/10/15 19:41:36;;;;;;;6.00;4.07;;;;;;;;;;10462444;28;20037;-84
2021/10/15 19:46:36;;;;;;;8.35;3.63;;;;;;;;;;10431102;23;20305;-83
2021/10/15 19:51:37;;;;;;;5.93;3.30;;;;;;;;;;10416802;28;20121;-83
2021/10/15 19:56:37;;;;;;;6.57;3.90;;;;;;;;;;10411842;28;20088;-84
2021/10/15 20:01:37;;;;;;;12.50;4.05;;;;;;;;;;10414383;28;20101;-83
2021/10/15 20:06:38;;;;;;;8.70;3.95;;;;;;;;;;10419069;28;20057;-83
2021/10/15 20:11:38;;;;;;;10.07;4.00;;;;;;;;;;10421692;28;20030;-84
2021/10/15 20:16:39;;;;;;;6.78;3.70;;;;;;;;;;10417829;28;20041;-89
2021/10/15 20:21:39;;;;;;;7.17;3.73;;;;;;;;;;10419700;28;20037;-94
2021/10/15 20:26:40;;;;;;;8.98;3.78;;;;;;;;;;10425747;28;20262;-93
2021/10/15 20:31:40;;;;;;;14.98;3.97;;;;;;;;;;10424171;28;20395;-89
2021/10/15 20:36:41;;;;;;;24.47;3.80;;;;;;;;;;10420665;28;20017;-79
2021/10/15 20:41:41;;;;;;;11.17;3.47;;;;;;;;;;10416473;28;20282;-83
2021/10/15 20:46:41;;;;;;;22.47;4.53;;;;;;;;;;10417992;28;20680;-83
2021/10/15 20:51:42;;;;;;;23.50;3.80;;;;;;;;;;10420098;28;20030;-82
2021/10/15 20:56:42;;;;;;;12.80;3.50;;;;;;;;;;10419763;28;20033;-83
2021/10/15 21:01:43;;;;;;;20.83;4.15;;;;;;;;;;10421496;28;20117;-83
2021/10/15 21:06:43;;;;;;;18.07;3.70;;;;;;;;;;10420078;28;20029;-81
2021/10/15 21:11:43;;;;;;;10.83;3.30;;;;;;;;;;10417062;28;20271;-81
2021/10/15 21:16:44;;;;;;;10.67;3.43;;;;;;;;;;10420609;28;20030;-87
2021/10/15 21:21:44;;;;;;;22.43;4.07;;;;;;;;;;10421459;28;20301;-84
2021/10/15 21:26:44;;;;;;;9.00;3.60;;;;;;;;;;10424080;28;20033;-90
2021/10/15 21:31:45;;;;;;;11.20;3.37;;;;;;;;;;10423621;28;20044;-90
2021/10/15 21:36:45;;;;;;;10.60;3.47;;;;;;;;;;10424158;28;20045;-88
2021/10/15 21:41:45;;;;;;;16.90;4.17;;;;;;;;;;10418887;28;20444;-89
2021/10/15 21:46:46;;;;;;;11.27;4.00;;;;;;;;;;10427104;28;20128;-89
2021/10/15 21:51:46;;;;;;;11.38;3.22;;;;;;;;;;10421171;28;20038;-91
2021/10/15 21:56:46;;;;;;;10.90;3.00;;;;;;;;;;10422661;28;20031;-92
2021/10/15 22:01:47;;;;;;;11.83;3.60;;;;;;;;;;10422707;28;20277;-89
2021/10/15 22:06:47;;;;;;;11.70;3.80;;;;;;;;;;10420992;28;20289;-88
2021/10/15 22:11:48;;;;;;;9.67;3.20;;;;;;;;;;10421405;28;20037;-92
2021/10/15 22:16:49;;;;;;;10.40;3.07;;;;;;;;;;10421496;28;20263;-87
2021/10/15 22:21:49;;;;;;;8.38;2.90;;;;;;;;;;10419737;28;20088;-88
2021/10/15 22:26:49;;;;;;;7.67;3.20;;;;;;;;;;10409884;28;20029;-88
2021/10/15 22:31:50;;;;;;;5.97;3.13;;;;;;;;;;10418915;28;20298;-87
2021/10/15 22:36:51;;;;;;;6.30;2.80;;;;;;;;;;10419565;28;20128;-87
2021/10/15 22:41:52;;;;;;;8.83;2.53;;;;;;;;;;10419672;28;20547;-86
2021/10/15 22:46:52;;;;;;;8.17;3.60;;;;;;;;;;10419221;28;20373;-86
2021/10/15 22:51:52;;;;;;;10.43;2.90;;;;;;;;;;10420199;28;20180;-88
2021/10/15 22:56:53;;;;;;;9.77;3.40;;;;;;;;;;10419487;28;20063;-89
2021/10/15 23:01:53;;;;;;;9.60;2.90;;;;;;;;;;10420191;28;20059;-90
2021/10/15 23:06:54;;;;;;;4.68;3.05;;;;;;;;;;10416859;28;20120;-89
2021/10/15 23:11:55;;;;;;;3.65;2.85;;;;;;;;;;10419116;28;20060;-88
2021/10/15 23:16:55;;;;;;;10.35;2.75;;;;;;;;;;10418694;28;20137;-89
2021/10/15 23:21:56;;;;;;;3.90;2.57;;;;;;;;;;10418541;28;20029;-88
2021/10/15 23:26:56;;;;;;;7.63;3.00;;;;;;;;;;10418927;28;20120;-89
2021/10/15 23:31:56;;;;;;;16.03;2.40;;;;;;;;;;10419327;28;20053;-93
2021/10/15 23:36:57;;;;;;;10.17;3.07;;;;;;;;;;10406902;28;20297;-93
2021/10/15 23:41:58;;;;;;;7.77;2.67;;;;;;;;;;10423488;28;20719;-94
2021/10/15 23:46:58;;;;;;;9.07;2.67;;;;;;;;;;10431399;28;20099;-94
2021/10/15 23:51:59;;;;;;;4.55;2.58;;;;;;;;;;10429099;28;20033;-93
2021/10/15 23:56:59;;;;;;;6.17;2.53;;;;;;;;;;10424072;28;20018;-92
